sensor_id;sensor_type;location;lat;lon;timestamp;P1;durP1;ratioP1;P2;durP2;ratioP2
9072;SDS011;4572;41.642;25.370;2023-03-01T00:01:30;1.83;;;1.73;;
9072;SDS011;4572;41.642;25.370;2023-03-01T00:03:56;6.10;;;2.10;;
9072;SDS011;4572;41.642;25.370;2023-03-01T00:06:23;2.10;;;2.00;;
9072;SDS011;4572;41.642;25.370;2023-03-01T00:08:49;2.20;;;1.70;;
9072;SDS011;4572;41.642;25.370;2023-03-01T00:11:25;2.17;;;1.97;;
9072;SDS011;4572;41.642;25.370;2023-03-01T00:13:52;2.57;;;2.37;;
9072;SDS011;4572;41.642;25.370;2023-03-01T00:16:21;2.20;;;2.00;;
9072;SDS011;4572;41.642;25.370;2023-03-01T00:18:48;2.30;;;2.10;;
9072;SDS011;4572;41.642;25.370;2023-03-01T00:21:13;2.43;;;2.23;;
9072;SDS011;4572;41.642;25.370;2023-03-01T00:23:40;2.90;;;2.27;;
9072;SDS011;4572;41.642;25.370;2023-03-01T00:26:06;2.77;;;2.47;;
9072;SDS011;4572;41.642;25.370;2023-03-01T00:28:33;3.10;;;2.73;;
9072;SDS011;4572;41.642;25.370;2023-03-01T00:31:06;3.10;;;2.80;;
9072;SDS011;4572;41.642;25.370;2023-03-01T00:33:33;3.10;;;2.90;;
9072;SDS011;4572;41.642;25.370;2023-03-01T00:35:59;3.17;;;2.87;;
9072;SDS011;4572;41.642;25.370;2023-03-01T00:38:24;2.70;;;2.50;;
9072;SDS011;4572;41.642;25.370;2023-03-01T00:40:50;2.67;;;2.47;;
9072;SDS011;4572;41.642;25.370;2023-03-01T00:43:15;2.70;;;2.50;;
9072;SDS011;4572;41.642;25.370;2023-03-01T00:45:41;2.90;;;2.70;;
9072;SDS011;4572;41.642;25.370;2023-03-01T00:48:07;3.40;;;3.00;;
9072;SDS011;4572;41.642;25.370;2023-03-01T00:50:32;3.90;;;3.50;;
9072;SDS011;4572;41.642;25.370;2023-03-01T00:52:58;3.47;;;3.17;;
9072;SDS011;4572;41.642;25.370;2023-03-01T00:55:24;2.80;;;2.60;;
9072;SDS011;4572;41.642;25.370;2023-03-01T00:57:50;3.50;;;3.20;;
9072;SDS011;4572;41.642;25.370;2023-03-01T01:00:15;3.67;;;3.37;;
9072;SDS011;4572;41.642;25.370;2023-03-01T01:02:41;3.07;;;2.77;;
9072;SDS011;4572;41.642;25.370;2023-03-01T01:05:07;3.80;;;3.27;;
9072;SDS011;4572;41.642;25.370;2023-03-01T01:07:34;3.20;;;2.90;;
9072;SDS011;4572;41.642;25.370;2023-03-01T01:09:59;2.87;;;2.67;;
9072;SDS011;4572;41.642;25.370;2023-03-01T01:12:25;3.77;;;2.83;;
9072;SDS011;4572;41.642;25.370;2023-03-01T01:14:50;3.03;;;2.77;;
9072;SDS011;4572;41.642;25.370;2023-03-01T01:17:16;3.40;;;3.10;;
9072;SDS011;4572;41.642;25.370;2023-03-01T01:19:42;2.77;;;2.57;;
9072;SDS011;4572;41.642;25.370;2023-03-01T01:22:08;2.57;;;2.37;;
9072;SDS011;4572;41.642;25.370;2023-03-01T01:24:34;2.67;;;2.47;;
9072;SDS011;4572;41.642;25.370;2023-03-01T01:27:00;2.80;;;2.47;;
9072;SDS011;4572;41.642;25.370;2023-03-01T01:29:25;2.90;;;2.70;;
9072;SDS011;4572;41.642;25.370;2023-03-01T01:31:51;2.70;;;2.50;;
9072;SDS011;4572;41.642;25.370;2023-03-01T01:34:17;2.47;;;2.27;;
9072;SDS011;4572;41.642;25.370;2023-03-01T01:36:47;2.70;;;2.50;;
9072;SDS011;4572;41.642;25.370;2023-03-01T01:39:14;2.93;;;2.30;;
9072;SDS011;4572;41.642;25.370;2023-03-01T01:41:40;2.43;;;2.23;;
9072;SDS011;4572;41.642;25.370;2023-03-01T01:46:43;2.90;;;2.50;;
9072;SDS011;4572;41.642;25.370;2023-03-01T01:51:45;2.63;;;2.43;;
9072;SDS011;4572;41.642;25.370;2023-03-01T01:54:30;3.47;;;3.00;;
9072;SDS011;4572;41.642;25.370;2023-03-01T01:57:00;3.63;;;3.30;;
9072;SDS011;4572;41.642;25.370;2023-03-01T01:59:28;3.00;;;2.73;;
9072;SDS011;4572;41.642;25.370;2023-03-01T02:01:55;3.63;;;3.33;;
9072;SDS011;4572;41.642;25.370;2023-03-01T02:04:24;3.70;;;3.40;;
9072;SDS011;4572;41.642;25.370;2023-03-01T02:09:51;2.40;;;2.20;;
9072;SDS011;4572;41.642;25.370;2023-03-01T02:12:18;3.57;;;2.67;;
9072;SDS011;4572;41.642;25.370;2023-03-01T02:14:45;3.57;;;3.27;;
9072;SDS011;4572;41.642;25.370;2023-03-01T02:17:11;2.97;;;2.67;;
9072;SDS011;4572;41.642;25.370;2023-03-01T02:27:21;2.47;;;2.00;;
9072;SDS011;4572;41.642;25.370;2023-03-01T02:29:50;4.33;;;2.50;;
9072;SDS011;4572;41.642;25.370;2023-03-01T02:32:15;3.77;;;2.27;;
9072;SDS011;4572;41.642;25.370;2023-03-01T02:34:50;3.27;;;2.40;;
9072;SDS011;4572;41.642;25.370;2023-03-01T02:37:17;2.53;;;2.30;;
9072;SDS011;4572;41.642;25.370;2023-03-01T02:39:50;3.30;;;2.50;;
9072;SDS011;4572;41.642;25.370;2023-03-01T02:42:30;3.03;;;2.47;;
9072;SDS011;4572;41.642;25.370;2023-03-01T02:44:57;3.20;;;2.17;;
9072;SDS011;4572;41.642;25.370;2023-03-01T02:47:23;3.27;;;2.70;;
9072;SDS011;4572;41.642;25.370;2023-03-01T02:49:48;3.70;;;2.73;;
9072;SDS011;4572;41.642;25.370;2023-03-01T02:52:33;3.00;;;2.70;;
9072;SDS011;4572;41.642;25.370;2023-03-01T02:55:11;3.57;;;2.30;;
9072;SDS011;4572;41.642;25.370;2023-03-01T02:57:39;2.60;;;2.30;;
9072;SDS011;4572;41.642;25.370;2023-03-01T03:00:07;2.33;;;2.13;;
9072;SDS011;4572;41.642;25.370;2023-03-01T03:02:35;2.73;;;2.30;;
9072;SDS011;4572;41.642;25.370;2023-03-01T03:05:11;2.70;;;2.50;;
9072;SDS011;4572;41.642;25.370;2023-03-01T03:07:40;3.17;;;2.40;;
9072;SDS011;4572;41.642;25.370;2023-03-01T03:10:09;3.10;;;2.40;;
9072;SDS011;4572;41.642;25.370;2023-03-01T03:12:37;2.27;;;2.00;;
9072;SDS011;4572;41.642;25.370;2023-03-01T03:15:03;3.03;;;2.33;;
9072;SDS011;4572;41.642;25.370;2023-03-01T03:17:36;2.07;;;1.87;;
9072;SDS011;4572;41.642;25.370;2023-03-01T03:20:06;3.30;;;2.43;;
9072;SDS011;4572;41.642;25.370;2023-03-01T03:22:36;3.20;;;2.60;;
9072;SDS011;4572;41.642;25.370;2023-03-01T03:25:03;3.20;;;2.83;;
9072;SDS011;4572;41.642;25.370;2023-03-01T03:27:28;3.83;;;2.80;;
9072;SDS011;4572;41.642;25.370;2023-03-01T03:29:54;3.37;;;2.80;;
9072;SDS011;4572;41.642;25.370;2023-03-01T03:32:19;4.70;;;2.53;;
9072;SDS011;4572;41.642;25.370;2023-03-01T03:34:44;4.07;;;2.77;;
9072;SDS011;4572;41.642;25.370;2023-03-01T03:37:10;3.13;;;2.30;;
9072;SDS011;4572;41.642;25.370;2023-03-01T03:39:56;3.83;;;2.80;;
9072;SDS011;4572;41.642;25.370;2023-03-01T03:42:21;3.13;;;2.30;;
9072;SDS011;4572;41.642;25.370;2023-03-01T03:44:47;2.63;;;2.43;;
9072;SDS011;4572;41.642;25.370;2023-03-01T03:47:31;2.60;;;2.30;;
9072;SDS011;4572;41.642;25.370;2023-03-01T03:50:16;2.67;;;2.23;;
9072;SDS011;4572;41.642;25.370;2023-03-01T03:52:43;2.33;;;1.80;;
9072;SDS011;4572;41.642;25.370;2023-03-01T03:55:09;2.50;;;2.30;;
9072;SDS011;4572;41.642;25.370;2023-03-01T03:57:42;4.23;;;2.17;;
9072;SDS011;4572;41.642;25.370;2023-03-01T04:00:26;2.77;;;2.40;;
9072;SDS011;4572;41.642;25.370;2023-03-01T04:03:10;3.07;;;2.77;;
9072;SDS011;4572;41.642;25.370;2023-03-01T04:05:37;3.03;;;2.53;;
9072;SDS011;4572;41.642;25.370;2023-03-01T04:08:04;3.40;;;1.93;;
9072;SDS011;4572;41.642;25.370;2023-03-01T04:10:36;2.97;;;2.30;;
9072;SDS011;4572;41.642;25.370;2023-03-01T04:13:04;3.03;;;2.20;;
9072;SDS011;4572;41.642;25.370;2023-03-01T04:15:30;2.23;;;1.90;;
9072;SDS011;4572;41.642;25.370;2023-03-01T04:17:58;3.43;;;2.57;;
9072;SDS011;4572;41.642;25.370;2023-03-01T04:20:25;3.03;;;2.70;;
9072;SDS011;4572;41.642;25.370;2023-03-01T04:25:18;4.73;;;3.13;;
9072;SDS011;4572;41.642;25.370;2023-03-01T04:27:44;3.27;;;2.97;;
9072;SDS011;4572;41.642;25.370;2023-03-01T04:30:10;3.20;;;2.13;;
9072;SDS011;4572;41.642;25.370;2023-03-01T04:32:36;3.20;;;2.67;;
9072;SDS011;4572;41.642;25.370;2023-03-01T04:35:01;2.10;;;2.00;;
9072;SDS011;4572;41.642;25.370;2023-03-01T04:37:27;4.37;;;2.40;;
9072;SDS011;4572;41.642;25.370;2023-03-01T04:39:52;2.10;;;1.93;;
9072;SDS011;4572;41.642;25.370;2023-03-01T04:42:18;2.37;;;2.17;;
9072;SDS011;4572;41.642;25.370;2023-03-01T04:44:44;2.70;;;1.97;;
9072;SDS011;4572;41.642;25.370;2023-03-01T04:47:10;2.50;;;2.30;;
9072;SDS011;4572;41.642;25.370;2023-03-01T04:49:36;2.70;;;2.00;;
9072;SDS011;4572;41.642;25.370;2023-03-01T04:52:02;2.30;;;2.10;;
9072;SDS011;4572;41.642;25.370;2023-03-01T04:54:28;3.57;;;2.20;;
9072;SDS011;4572;41.642;25.370;2023-03-01T04:56:54;3.07;;;2.67;;
9072;SDS011;4572;41.642;25.370;2023-03-01T04:59:20;3.73;;;2.50;;
9072;SDS011;4572;41.642;25.370;2023-03-01T05:01:48;10.93;;;8.60;;
9072;SDS011;4572;41.642;25.370;2023-03-01T05:04:14;7.00;;;4.90;;
9072;SDS011;4572;41.642;25.370;2023-03-01T05:06:40;5.07;;;2.27;;
9072;SDS011;4572;41.642;25.370;2023-03-01T05:09:05;4.23;;;2.77;;
9072;SDS011;4572;41.642;25.370;2023-03-01T05:11:31;3.80;;;2.73;;
9072;SDS011;4572;41.642;25.370;2023-03-01T05:14:04;4.27;;;2.90;;
9072;SDS011;4572;41.642;25.370;2023-03-01T05:16:30;4.07;;;3.10;;
9072;SDS011;4572;41.642;25.370;2023-03-01T05:18:57;5.83;;;3.20;;
9072;SDS011;4572;41.642;25.370;2023-03-01T05:21:23;4.60;;;3.13;;
9072;SDS011;4572;41.642;25.370;2023-03-01T05:23:49;5.63;;;3.43;;
9072;SDS011;4572;41.642;25.370;2023-03-01T05:26:15;4.77;;;3.30;;
9072;SDS011;4572;41.642;25.370;2023-03-01T05:28:42;6.57;;;3.27;;
9072;SDS011;4572;41.642;25.370;2023-03-01T05:31:09;5.60;;;3.80;;
9072;SDS011;4572;41.642;25.370;2023-03-01T05:33:37;9.13;;;5.03;;
9072;SDS011;4572;41.642;25.370;2023-03-01T05:36:04;5.63;;;3.63;;
9072;SDS011;4572;41.642;25.370;2023-03-01T05:38:32;3.10;;;2.50;;
9072;SDS011;4572;41.642;25.370;2023-03-01T05:40:58;5.67;;;3.73;;
9072;SDS011;4572;41.642;25.370;2023-03-01T05:43:23;4.00;;;2.73;;
9072;SDS011;4572;41.642;25.370;2023-03-01T05:45:48;6.57;;;4.00;;
9072;SDS011;4572;41.642;25.370;2023-03-01T05:48:14;5.83;;;3.83;;
9072;SDS011;4572;41.642;25.370;2023-03-01T05:50:41;8.57;;;4.70;;
9072;SDS011;4572;41.642;25.370;2023-03-01T05:53:18;5.83;;;4.67;;
9072;SDS011;4572;41.642;25.370;2023-03-01T05:55:46;6.03;;;3.97;;
9072;SDS011;4572;41.642;25.370;2023-03-01T05:58:13;5.20;;;3.40;;
9072;SDS011;4572;41.642;25.370;2023-03-01T06:00:40;4.57;;;3.40;;
9072;SDS011;4572;41.642;25.370;2023-03-01T06:03:06;5.40;;;3.13;;
9072;SDS011;4572;41.642;25.370;2023-03-01T06:05:31;5.03;;;3.13;;
9072;SDS011;4572;41.642;25.370;2023-03-01T06:07:59;4.47;;;3.53;;
9072;SDS011;4572;41.642;25.370;2023-03-01T06:10:25;5.23;;;3.60;;
9072;SDS011;4572;41.642;25.370;2023-03-01T06:12:51;4.23;;;3.47;;
9072;SDS011;4572;41.642;25.370;2023-03-01T06:15:16;5.03;;;3.30;;
9072;SDS011;4572;41.642;25.370;2023-03-01T06:17:43;4.50;;;3.40;;
9072;SDS011;4572;41.642;25.370;2023-03-01T06:20:13;5.63;;;3.40;;
9072;SDS011;4572;41.642;25.370;2023-03-01T06:22:40;3.37;;;2.40;;
9072;SDS011;4572;41.642;25.370;2023-03-01T06:25:06;3.43;;;2.77;;
9072;SDS011;4572;41.642;25.370;2023-03-01T06:27:32;4.37;;;2.70;;
9072;SDS011;4572;41.642;25.370;2023-03-01T06:29:57;3.03;;;2.37;;
9072;SDS011;4572;41.642;25.370;2023-03-01T06:32:22;5.77;;;3.43;;
9072;SDS011;4572;41.642;25.370;2023-03-01T06:34:49;2.50;;;2.30;;
9072;SDS011;4572;41.642;25.370;2023-03-01T06:37:14;4.63;;;3.43;;
9072;SDS011;4572;41.642;25.370;2023-03-01T06:39:40;3.50;;;2.50;;
9072;SDS011;4572;41.642;25.370;2023-03-01T06:42:07;3.50;;;3.13;;
9072;SDS011;4572;41.642;25.370;2023-03-01T06:44:33;4.30;;;3.23;;
9072;SDS011;4572;41.642;25.370;2023-03-01T06:46:58;5.60;;;3.17;;
9072;SDS011;4572;41.642;25.370;2023-03-01T06:49:24;6.33;;;3.63;;
9072;SDS011;4572;41.642;25.370;2023-03-01T06:51:50;6.17;;;3.83;;
9072;SDS011;4572;41.642;25.370;2023-03-01T06:54:15;5.57;;;3.47;;
9072;SDS011;4572;41.642;25.370;2023-03-01T06:56:42;5.33;;;4.47;;
9072;SDS011;4572;41.642;25.370;2023-03-01T06:59:08;2.20;;;2.03;;
9072;SDS011;4572;41.642;25.370;2023-03-01T07:01:33;4.43;;;2.87;;
9072;SDS011;4572;41.642;25.370;2023-03-01T07:03:59;4.07;;;2.60;;
9072;SDS011;4572;41.642;25.370;2023-03-01T07:06:24;2.50;;;1.80;;
9072;SDS011;4572;41.642;25.370;2023-03-01T07:08:50;4.07;;;2.00;;
9072;SDS011;4572;41.642;25.370;2023-03-01T07:11:15;2.60;;;1.60;;
9072;SDS011;4572;41.642;25.370;2023-03-01T07:13:41;6.43;;;3.17;;
9072;SDS011;4572;41.642;25.370;2023-03-01T07:16:07;4.27;;;3.03;;
9072;SDS011;4572;41.642;25.370;2023-03-01T07:18:33;3.33;;;2.97;;
9072;SDS011;4572;41.642;25.370;2023-03-01T07:21:03;2.87;;;2.50;;
9072;SDS011;4572;41.642;25.370;2023-03-01T07:23:29;4.10;;;2.40;;
9072;SDS011;4572;41.642;25.370;2023-03-01T07:25:55;4.67;;;1.87;;
9072;SDS011;4572;41.642;25.370;2023-03-01T07:28:22;2.13;;;1.93;;
9072;SDS011;4572;41.642;25.370;2023-03-01T07:30:49;6.27;;;2.87;;
9072;SDS011;4572;41.642;25.370;2023-03-01T07:33:14;4.50;;;3.20;;
9072;SDS011;4572;41.642;25.370;2023-03-01T07:35:40;5.50;;;3.03;;
9072;SDS011;4572;41.642;25.370;2023-03-01T07:38:05;3.73;;;2.03;;
9072;SDS011;4572;41.642;25.370;2023-03-01T07:40:31;5.20;;;3.60;;
9072;SDS011;4572;41.642;25.370;2023-03-01T07:42:57;5.87;;;4.70;;
9072;SDS011;4572;41.642;25.370;2023-03-01T07:45:23;2.63;;;2.00;;
9072;SDS011;4572;41.642;25.370;2023-03-01T07:47:50;2.77;;;1.90;;
9072;SDS011;4572;41.642;25.370;2023-03-01T07:50:16;3.17;;;2.40;;
9072;SDS011;4572;41.642;25.370;2023-03-01T07:52:44;3.23;;;2.57;;
9072;SDS011;4572;41.642;25.370;2023-03-01T07:55:10;2.93;;;2.30;;
9072;SDS011;4572;41.642;25.370;2023-03-01T07:57:36;3.43;;;1.97;;
9072;SDS011;4572;41.642;25.370;2023-03-01T08:00:01;2.10;;;1.77;;
9072;SDS011;4572;41.642;25.370;2023-03-01T08:02:26;3.77;;;2.30;;
9072;SDS011;4572;41.642;25.370;2023-03-01T08:04:52;2.97;;;2.20;;
9072;SDS011;4572;41.642;25.370;2023-03-01T08:07:17;5.13;;;2.70;;
9072;SDS011;4572;41.642;25.370;2023-03-01T08:09:43;4.67;;;3.00;;
9072;SDS011;4572;41.642;25.370;2023-03-01T08:12:08;5.03;;;1.60;;
9072;SDS011;4572;41.642;25.370;2023-03-01T08:14:34;2.83;;;1.90;;
9072;SDS011;4572;41.642;25.370;2023-03-01T08:16:59;2.47;;;1.60;;
9072;SDS011;4572;41.642;25.370;2023-03-01T08:19:25;3.43;;;2.33;;
9072;SDS011;4572;41.642;25.370;2023-03-01T08:21:53;6.50;;;3.83;;
9072;SDS011;4572;41.642;25.370;2023-03-01T08:24:18;2.53;;;1.97;;
9072;SDS011;4572;41.642;25.370;2023-03-01T08:26:44;2.57;;;2.13;;
9072;SDS011;4572;41.642;25.370;2023-03-01T08:29:09;5.23;;;2.73;;
9072;SDS011;4572;41.642;25.370;2023-03-01T08:31:36;2.50;;;2.10;;
9072;SDS011;4572;41.642;25.370;2023-03-01T08:34:04;3.10;;;2.10;;
9072;SDS011;4572;41.642;25.370;2023-03-01T08:36:35;2.30;;;2.10;;
9072;SDS011;4572;41.642;25.370;2023-03-01T08:39:02;6.27;;;2.83;;
9072;SDS011;4572;41.642;25.370;2023-03-01T08:41:29;5.33;;;3.10;;
9072;SDS011;4572;41.642;25.370;2023-03-01T08:43:54;7.13;;;3.47;;
9072;SDS011;4572;41.642;25.370;2023-03-01T08:46:24;5.30;;;3.20;;
9072;SDS011;4572;41.642;25.370;2023-03-01T08:48:57;3.77;;;2.30;;
9072;SDS011;4572;41.642;25.370;2023-03-01T08:51:23;5.50;;;3.80;;
9072;SDS011;4572;41.642;25.370;2023-03-01T08:53:49;2.10;;;1.90;;
9072;SDS011;4572;41.642;25.370;2023-03-01T08:56:15;2.50;;;1.80;;
9072;SDS011;4572;41.642;25.370;2023-03-01T08:58:45;2.40;;;2.20;;
9072;SDS011;4572;41.642;25.370;2023-03-01T09:01:12;2.37;;;2.00;;
9072;SDS011;4572;41.642;25.370;2023-03-01T09:03:39;3.93;;;2.33;;
9072;SDS011;4572;41.642;25.370;2023-03-01T09:06:06;2.70;;;2.20;;
9072;SDS011;4572;41.642;25.370;2023-03-01T09:08:36;2.10;;;1.87;;
9072;SDS011;4572;41.642;25.370;2023-03-01T09:11:03;3.70;;;2.83;;
9072;SDS011;4572;41.642;25.370;2023-03-01T09:13:32;3.33;;;2.53;;
9072;SDS011;4572;41.642;25.370;2023-03-01T09:15:59;3.30;;;2.83;;
9072;SDS011;4572;41.642;25.370;2023-03-01T09:18:26;2.47;;;2.10;;
9072;SDS011;4572;41.642;25.370;2023-03-01T09:20:52;2.27;;;2.03;;
9072;SDS011;4572;41.642;25.370;2023-03-01T09:23:20;3.30;;;2.67;;
9072;SDS011;4572;41.642;25.370;2023-03-01T09:25:46;5.83;;;3.93;;
9072;SDS011;4572;41.642;25.370;2023-03-01T09:28:12;5.50;;;3.33;;
9072;SDS011;4572;41.642;25.370;2023-03-01T09:30:37;5.37;;;3.10;;
9072;SDS011;4572;41.642;25.370;2023-03-01T09:33:03;5.13;;;2.97;;
9072;SDS011;4572;41.642;25.370;2023-03-01T09:35:28;4.47;;;2.47;;
9072;SDS011;4572;41.642;25.370;2023-03-01T09:37:54;5.07;;;3.00;;
9072;SDS011;4572;41.642;25.370;2023-03-01T09:40:20;3.00;;;2.47;;
9072;SDS011;4572;41.642;25.370;2023-03-01T09:45:34;4.07;;;2.90;;
9072;SDS011;4572;41.642;25.370;2023-03-01T09:48:02;6.07;;;3.70;;
9072;SDS011;4572;41.642;25.370;2023-03-01T09:50:32;2.97;;;2.30;;
9072;SDS011;4572;41.642;25.370;2023-03-01T09:53:07;3.80;;;2.27;;
9072;SDS011;4572;41.642;25.370;2023-03-01T10:01:11;2.70;;;2.27;;
9072;SDS011;4572;41.642;25.370;2023-03-01T10:06:36;4.20;;;3.20;;
9072;SDS011;4572;41.642;25.370;2023-03-01T10:09:10;5.20;;;3.40;;
9072;SDS011;4572;41.642;25.370;2023-03-01T10:11:38;3.60;;;2.63;;
9072;SDS011;4572;41.642;25.370;2023-03-01T10:16:58;2.10;;;1.70;;
9072;SDS011;4572;41.642;25.370;2023-03-01T10:19:32;2.27;;;2.00;;
9072;SDS011;4572;41.642;25.370;2023-03-01T10:24:57;2.37;;;2.00;;
9072;SDS011;4572;41.642;25.370;2023-03-01T10:27:45;2.53;;;2.20;;
9072;SDS011;4572;41.642;25.370;2023-03-01T10:33:13;2.03;;;1.83;;
9072;SDS011;4572;41.642;25.370;2023-03-01T10:36:01;2.57;;;2.27;;
9072;SDS011;4572;41.642;25.370;2023-03-01T10:38:26;3.30;;;2.03;;
9072;SDS011;4572;41.642;25.370;2023-03-01T10:41:05;3.77;;;2.20;;
9072;SDS011;4572;41.642;25.370;2023-03-01T10:46:28;2.00;;;1.80;;
9072;SDS011;4572;41.642;25.370;2023-03-01T10:49:17;2.80;;;2.20;;
9072;SDS011;4572;41.642;25.370;2023-03-01T10:51:45;3.07;;;2.27;;
9072;SDS011;4572;41.642;25.370;2023-03-01T10:54:20;3.47;;;2.30;;
9072;SDS011;4572;41.642;25.370;2023-03-01T10:57:00;3.27;;;2.97;;
9072;SDS011;4572;41.642;25.370;2023-03-01T10:59:28;4.03;;;3.03;;
9072;SDS011;4572;41.642;25.370;2023-03-01T11:04:35;3.07;;;2.00;;
9072;SDS011;4572;41.642;25.370;2023-03-01T11:07:01;3.30;;;2.60;;
9072;SDS011;4572;41.642;25.370;2023-03-01T11:09:30;3.23;;;2.27;;
9072;SDS011;4572;41.642;25.370;2023-03-01T11:12:03;2.10;;;1.90;;
9072;SDS011;4572;41.642;25.370;2023-03-01T11:14:33;3.20;;;2.40;;
9072;SDS011;4572;41.642;25.370;2023-03-01T11:17:05;3.23;;;2.30;;
9072;SDS011;4572;41.642;25.370;2023-03-01T11:19:37;3.83;;;2.33;;
9072;SDS011;4572;41.642;25.370;2023-03-01T11:22:04;3.37;;;3.00;;
9072;SDS011;4572;41.642;25.370;2023-03-01T11:24:42;3.47;;;2.50;;
9072;SDS011;4572;41.642;25.370;2023-03-01T11:27:18;3.53;;;2.90;;
9072;SDS011;4572;41.642;25.370;2023-03-01T11:29:48;2.60;;;2.40;;
9072;SDS011;4572;41.642;25.370;2023-03-01T11:35:27;3.73;;;2.23;;
9072;SDS011;4572;41.642;25.370;2023-03-01T11:38:03;3.27;;;2.93;;
9072;SDS011;4572;41.642;25.370;2023-03-01T11:40:55;2.97;;;2.70;;
9072;SDS011;4572;41.642;25.370;2023-03-01T11:55:57;4.53;;;3.13;;
9072;SDS011;4572;41.642;25.370;2023-03-01T11:58:49;6.00;;;3.47;;
9072;SDS011;4572;41.642;25.370;2023-03-01T12:09:41;5.30;;;4.37;;
9072;SDS011;4572;41.642;25.370;2023-03-01T12:14:49;3.07;;;2.77;;
9072;SDS011;4572;41.642;25.370;2023-03-01T12:22:38;2.83;;;2.50;;
9072;SDS011;4572;41.642;25.370;2023-03-01T12:27:46;2.30;;;2.10;;
9072;SDS011;4572;41.642;25.370;2023-03-01T12:30:48;2.50;;;2.30;;
9072;SDS011;4572;41.642;25.370;2023-03-01T12:36:16;2.73;;;2.53;;
9072;SDS011;4572;41.642;25.370;2023-03-01T12:41:47;2.60;;;2.27;;
9072;SDS011;4572;41.642;25.370;2023-03-01T12:44:17;2.13;;;2.03;;
9072;SDS011;4572;41.642;25.370;2023-03-01T12:47:39;4.17;;;2.97;;
9072;SDS011;4572;41.642;25.370;2023-03-01T12:50:39;4.13;;;3.00;;
9072;SDS011;4572;41.642;25.370;2023-03-01T12:53:07;3.27;;;2.87;;
9072;SDS011;4572;41.642;25.370;2023-03-01T12:55:45;3.20;;;2.90;;
9072;SDS011;4572;41.642;25.370;2023-03-01T13:12:42;5.53;;;4.40;;
9072;SDS011;4572;41.642;25.370;2023-03-01T13:17:47;8.23;;;5.93;;
9072;SDS011;4572;41.642;25.370;2023-03-01T13:20:15;8.13;;;4.80;;
9072;SDS011;4572;41.642;25.370;2023-03-01T13:22:42;4.33;;;3.50;;
9072;SDS011;4572;41.642;25.370;2023-03-01T13:25:15;4.60;;;3.50;;
9072;SDS011;4572;41.642;25.370;2023-03-01T13:27:43;5.77;;;4.30;;
9072;SDS011;4572;41.642;25.370;2023-03-01T13:35:56;2.43;;;2.10;;
9072;SDS011;4572;41.642;25.370;2023-03-01T13:38:38;3.63;;;2.97;;
9072;SDS011;4572;41.642;25.370;2023-03-01T13:41:11;7.13;;;5.20;;
9072;SDS011;4572;41.642;25.370;2023-03-01T13:43:38;4.50;;;3.27;;
9072;SDS011;4572;41.642;25.370;2023-03-01T13:46:11;5.53;;;3.40;;
9072;SDS011;4572;41.642;25.370;2023-03-01T13:48:38;4.77;;;3.10;;
9072;SDS011;4572;41.642;25.370;2023-03-01T13:51:05;6.53;;;4.77;;
9072;SDS011;4572;41.642;25.370;2023-03-01T13:53:35;7.43;;;5.33;;
9072;SDS011;4572;41.642;25.370;2023-03-01T13:58:46;5.63;;;4.27;;
9072;SDS011;4572;41.642;25.370;2023-03-01T14:03:56;4.40;;;3.83;;
9072;SDS011;4572;41.642;25.370;2023-03-01T14:06:29;4.33;;;3.53;;
9072;SDS011;4572;41.642;25.370;2023-03-01T14:19:31;7.30;;;5.03;;
9072;SDS011;4572;41.642;25.370;2023-03-01T14:24:57;10.00;;;6.57;;
9072;SDS011;4572;41.642;25.370;2023-03-01T14:27:30;7.13;;;5.73;;
9072;SDS011;4572;41.642;25.370;2023-03-01T14:30:00;8.93;;;6.63;;
9072;SDS011;4572;41.642;25.370;2023-03-01T14:32:27;9.33;;;5.60;;
9072;SDS011;4572;41.642;25.370;2023-03-01T14:34:54;10.87;;;7.60;;
9072;SDS011;4572;41.642;25.370;2023-03-01T14:39:51;8.83;;;6.90;;
9072;SDS011;4572;41.642;25.370;2023-03-01T14:42:18;8.07;;;5.93;;
9072;SDS011;4572;41.642;25.370;2023-03-01T14:44:46;10.27;;;6.97;;
9072;SDS011;4572;41.642;25.370;2023-03-01T14:47:14;13.00;;;9.03;;
9072;SDS011;4572;41.642;25.370;2023-03-01T14:49:45;8.60;;;5.90;;
9072;SDS011;4572;41.642;25.370;2023-03-01T14:52:21;15.07;;;8.70;;
9072;SDS011;4572;41.642;25.370;2023-03-01T14:54:51;12.63;;;7.93;;
9072;SDS011;4572;41.642;25.370;2023-03-01T14:57:20;11.60;;;9.47;;
9072;SDS011;4572;41.642;25.370;2023-03-01T14:59:51;5.23;;;4.10;;
9072;SDS011;4572;41.642;25.370;2023-03-01T15:02:20;6.60;;;5.23;;
9072;SDS011;4572;41.642;25.370;2023-03-01T15:04:51;6.83;;;4.83;;
9072;SDS011;4572;41.642;25.370;2023-03-01T15:07:18;5.60;;;4.10;;
9072;SDS011;4572;41.642;25.370;2023-03-01T15:09:44;8.40;;;5.80;;
9072;SDS011;4572;41.642;25.370;2023-03-01T15:14:54;7.23;;;5.07;;
9072;SDS011;4572;41.642;25.370;2023-03-01T15:17:23;9.33;;;6.10;;
9072;SDS011;4572;41.642;25.370;2023-03-01T15:19:54;9.27;;;6.90;;
9072;SDS011;4572;41.642;25.370;2023-03-01T15:22:19;8.97;;;6.07;;
9072;SDS011;4572;41.642;25.370;2023-03-01T15:24:47;6.97;;;5.27;;
9072;SDS011;4572;41.642;25.370;2023-03-01T15:27:17;7.97;;;5.57;;
9072;SDS011;4572;41.642;25.370;2023-03-01T15:29:49;7.40;;;5.77;;
9072;SDS011;4572;41.642;25.370;2023-03-01T15:32:33;7.03;;;5.43;;
9072;SDS011;4572;41.642;25.370;2023-03-01T15:35:00;7.10;;;5.27;;
9072;SDS011;4572;41.642;25.370;2023-03-01T15:40:21;8.43;;;6.40;;
9072;SDS011;4572;41.642;25.370;2023-03-01T15:42:56;10.17;;;6.70;;
9072;SDS011;4572;41.642;25.370;2023-03-01T15:45:25;10.13;;;6.93;;
9072;SDS011;4572;41.642;25.370;2023-03-01T15:47:53;8.83;;;5.97;;
9072;SDS011;4572;41.642;25.370;2023-03-01T15:50:28;10.83;;;6.87;;
9072;SDS011;4572;41.642;25.370;2023-03-01T15:52:55;8.83;;;6.07;;
9072;SDS011;4572;41.642;25.370;2023-03-01T15:55:25;7.20;;;5.40;;
9072;SDS011;4572;41.642;25.370;2023-03-01T15:58:05;9.67;;;6.23;;
9072;SDS011;4572;41.642;25.370;2023-03-01T16:00:34;10.53;;;7.43;;
9072;SDS011;4572;41.642;25.370;2023-03-01T16:03:00;9.50;;;7.13;;
9072;SDS011;4572;41.642;25.370;2023-03-01T16:05:30;11.80;;;7.83;;
9072;SDS011;4572;41.642;25.370;2023-03-01T16:07:57;8.87;;;6.63;;
9072;SDS011;4572;41.642;25.370;2023-03-01T16:10:23;12.13;;;8.73;;
9072;SDS011;4572;41.642;25.370;2023-03-01T16:12:49;11.23;;;8.10;;
9072;SDS011;4572;41.642;25.370;2023-03-01T16:15:18;17.10;;;11.00;;
9072;SDS011;4572;41.642;25.370;2023-03-01T16:17:45;11.00;;;7.60;;
9072;SDS011;4572;41.642;25.370;2023-03-01T16:20:11;12.33;;;8.07;;
9072;SDS011;4572;41.642;25.370;2023-03-01T16:22:37;11.97;;;8.70;;
9072;SDS011;4572;41.642;25.370;2023-03-01T16:25:02;8.87;;;6.60;;
9072;SDS011;4572;41.642;25.370;2023-03-01T16:27:28;13.97;;;8.90;;
9072;SDS011;4572;41.642;25.370;2023-03-01T16:29:53;10.47;;;7.37;;
9072;SDS011;4572;41.642;25.370;2023-03-01T16:32:19;16.30;;;11.63;;
9072;SDS011;4572;41.642;25.370;2023-03-01T16:34:44;9.13;;;7.27;;
9072;SDS011;4572;41.642;25.370;2023-03-01T16:37:12;7.47;;;5.60;;
9072;SDS011;4572;41.642;25.370;2023-03-01T16:39:38;10.03;;;7.33;;
9072;SDS011;4572;41.642;25.370;2023-03-01T16:42:03;12.60;;;8.40;;
9072;SDS011;4572;41.642;25.370;2023-03-01T16:44:29;12.27;;;8.27;;
9072;SDS011;4572;41.642;25.370;2023-03-01T16:46:55;11.83;;;7.57;;
9072;SDS011;4572;41.642;25.370;2023-03-01T16:49:20;11.03;;;6.87;;
9072;SDS011;4572;41.642;25.370;2023-03-01T16:51:46;11.23;;;7.77;;
9072;SDS011;4572;41.642;25.370;2023-03-01T16:54:11;10.00;;;6.93;;
9072;SDS011;4572;41.642;25.370;2023-03-01T16:56:36;10.40;;;7.43;;
9072;SDS011;4572;41.642;25.370;2023-03-01T16:59:03;8.70;;;6.57;;
9072;SDS011;4572;41.642;25.370;2023-03-01T17:01:29;60.70;;;32.50;;
9072;SDS011;4572;41.642;25.370;2023-03-01T17:04:02;11.53;;;7.93;;
9072;SDS011;4572;41.642;25.370;2023-03-01T17:06:28;16.30;;;10.33;;
9072;SDS011;4572;41.642;25.370;2023-03-01T17:08:53;13.27;;;8.73;;
9072;SDS011;4572;41.642;25.370;2023-03-01T17:11:19;12.67;;;8.10;;
9072;SDS011;4572;41.642;25.370;2023-03-01T17:13:45;12.63;;;8.90;;
9072;SDS011;4572;41.642;25.370;2023-03-01T17:16:15;17.33;;;11.27;;
9072;SDS011;4572;41.642;25.370;2023-03-01T17:18:42;12.93;;;8.63;;
9072;SDS011;4572;41.642;25.370;2023-03-01T17:21:08;17.83;;;12.60;;
9072;SDS011;4572;41.642;25.370;2023-03-01T17:23:34;11.97;;;8.50;;